createdAt,value
2019-04-23T00:04:36.740Z,94214.00
2019-04-23T00:10:19.405Z,94211.00
2019-04-23T00:15:58.647Z,94203.00
2019-04-23T00:21:28.426Z,94203.00
2019-04-23T00:27:11.171Z,94196.00
2019-04-23T00:38:06.061Z,94191.00
2019-04-23T00:43:32.611Z,94187.00
2019-04-23T00:54:46.764Z,94180.00
2019-04-23T01:11:11.204Z,94163.00
2019-04-23T01:17:02.783Z,94160.00
2019-04-23T01:21:58.343Z,94162.00
2019-04-23T01:28:05.874Z,94159.00
2019-04-23T01:33:37.942Z,94155.00
2019-04-23T01:39:08.544Z,94154.00
2019-04-23T01:44:42.579Z,94149.00
2019-04-23T01:50:14.282Z,94152.00
2019-04-23T01:55:45.438Z,94129.00
2019-04-23T02:01:12.890Z,94134.00
2019-04-23T02:06:45.840Z,94124.00
2019-04-23T02:12:20.628Z,94135.00
2019-04-23T02:17:52.108Z,94126.00
2019-04-23T02:23:30.071Z,94122.00
2019-04-23T02:29:07.550Z,94116.00
2019-04-23T02:40:08.795Z,94108.00
2019-04-23T02:51:04.445Z,94106.00
2019-04-23T02:56:41.776Z,94094.00
2019-04-23T03:02:17.582Z,94084.00
2019-04-23T03:07:39.341Z,94094.00
2019-04-23T03:29:57.592Z,94067.00
2019-04-23T03:36:03.576Z,94065.00
2019-04-23T03:41:02.507Z,94068.00
2019-04-23T03:57:24.724Z,94068.00
2019-04-23T04:03:12.758Z,94056.00
2019-04-23T04:08:25.904Z,94052.00
2019-04-23T04:14:18.302Z,94050.00
2019-04-23T04:25:08.880Z,94060.00
2019-04-23T04:30:43.803Z,94064.00
2019-04-23T04:36:18.068Z,94058.00
2019-04-23T04:41:58.685Z,94051.00
2019-04-23T04:47:36.170Z,94049.00
2019-04-23T04:53:12.601Z,94056.00
2019-04-23T05:04:14.495Z,94065.00
2019-04-23T05:20:48.359Z,94070.00
2019-04-23T05:26:15.502Z,94067.00
2019-04-23T05:31:37.601Z,94054.00
2019-04-23T05:37:14.637Z,94069.00
2019-04-23T05:42:47.620Z,94071.00
2019-04-23T05:48:19.860Z,94066.00
2019-04-23T05:53:52.523Z,94061.00
2019-04-23T05:59:26.188Z,94067.00
2019-04-23T06:04:57.334Z,94061.00
2019-04-23T06:10:30.546Z,94066.00
2019-04-23T06:15:57.799Z,94063.00
2019-04-23T06:21:38.527Z,94067.00
2019-04-23T06:27:01.639Z,94068.00
2019-04-23T06:32:34.317Z,94074.00
2019-04-23T06:43:40.819Z,94066.00
2019-04-23T06:49:15.261Z,94070.00
2019-04-23T06:54:42.559Z,94073.00
2019-04-23T07:00:10.238Z,94080.00
2019-04-23T07:05:37.946Z,94080.00
2019-04-23T07:16:58.924Z,94082.00
2019-04-23T07:27:44.624Z,94081.00
2019-04-23T07:33:18.580Z,94078.00
2019-04-23T07:50:09.543Z,94074.00
2019-04-23T07:55:34.411Z,94077.00
2019-04-23T08:01:01.003Z,94079.00
2019-04-23T08:06:31.998Z,94077.00
2019-04-23T08:12:02.652Z,94083.00
2019-04-23T08:17:30.906Z,94081.00
2019-04-23T08:23:12.308Z,94080.00
2019-04-23T08:28:49.943Z,94077.00
2019-04-23T08:34:34.728Z,94070.00
2019-04-23T08:39:43.272Z,94065.00
2019-04-23T08:45:28.521Z,94066.00
2019-04-23T08:51:32.285Z,94071.00
2019-04-23T08:56:42.830Z,94062.00
2019-04-23T09:13:35.057Z,94060.00
2019-04-23T09:18:33.144Z,94057.00
2019-04-23T09:24:04.324Z,94054.00
2019-04-23T09:29:49.656Z,94044.00
2019-04-23T09:35:27.445Z,94045.00
2019-04-23T09:46:38.675Z,94034.00
2019-04-23T09:52:14.484Z,94038.00
2019-04-23T09:57:43.124Z,94032.00
2019-04-23T10:03:02.394Z,94032.00
2019-04-23T10:08:25.419Z,94028.00
2019-04-23T10:13:48.378Z,94034.00
2019-04-23T10:19:18.975Z,94031.00
2019-04-23T10:24:48.781Z,94033.00
2019-04-23T10:30:19.650Z,94023.00
2019-04-23T10:35:56.988Z,94018.00
2019-04-23T10:41:20.246Z,94019.00
2019-04-23T10:47:19.696Z,94033.00
2019-04-23T10:52:47.195Z,94028.00
2019-04-23T10:58:22.866Z,94016.00
2019-04-23T11:04:10.616Z,94011.00
2019-04-23T11:15:09.129Z,94019.00
2019-04-23T11:26:09.675Z,94021.00
2019-04-23T11:31:43.008Z,94026.00
2019-04-23T11:48:33.025Z,94025.00
2019-04-23T11:53:42.904Z,94020.00
2019-04-23T11:59:21.635Z,94016.00
2019-04-23T12:05:05.848Z,94028.00
2019-04-23T12:10:37.729Z,94032.00
2019-04-23T12:16:02.456Z,94023.00
2019-04-23T12:21:37.447Z,94016.00
2019-04-23T12:27:08.164Z,94034.00
2019-04-23T12:32:48.681Z,94036.00
2019-04-23T12:38:14.193Z,94033.00
2019-04-23T12:43:40.484Z,94031.00
2019-04-23T12:49:35.683Z,94027.00
2019-04-23T12:54:58.902Z,94034.00
2019-04-23T13:00:20.831Z,94027.00
2019-04-23T13:05:37.387Z,94028.00
2019-04-23T13:11:25.394Z,94017.00
2019-04-23T13:17:05.581Z,94017.00
2019-04-23T13:22:31.761Z,94019.00
2019-04-23T13:28:02.796Z,94008.00
2019-04-23T13:33:35.139Z,94014.00
2019-04-23T13:38:57.966Z,94019.00
2019-04-23T13:44:34.008Z,94015.00
2019-04-23T13:50:10.160Z,94017.00
2019-04-23T13:55:26.737Z,94012.00
2019-04-23T14:01:08.990Z,94014.00
2019-04-23T14:06:37.214Z,94012.00
2019-04-23T14:11:58.038Z,94013.00
2019-04-23T14:18:01.342Z,94017.00
2019-04-23T14:23:13.044Z,94016.00
2019-04-23T14:28:46.424Z,94011.00
2019-04-23T14:34:07.900Z,94013.00
2019-04-23T14:39:45.489Z,94015.00
2019-04-23T14:45:42.566Z,94016.00
2019-04-23T14:50:58.032Z,94014.00
2019-04-23T14:56:27.670Z,94024.00
2019-04-23T15:02:23.029Z,94017.00
2019-04-23T15:08:04.046Z,94019.00
2019-04-23T15:13:23.029Z,94021.00
2019-04-23T15:19:07.150Z,94022.00
2019-04-23T15:29:45.789Z,94028.00
2019-04-23T15:35:31.407Z,94040.00
2019-04-23T15:40:59.057Z,94031.00
2019-04-23T15:52:03.979Z,94040.00
2019-04-23T15:57:45.115Z,94045.00
2019-04-23T16:02:32.096Z,94058.00
2019-04-23T16:08:23.986Z,94047.00
2019-04-23T16:14:17.154Z,94059.00
2019-04-23T16:19:36.191Z,94060.00
2019-04-23T16:25:08.049Z,94058.00
2019-04-23T16:30:32.571Z,94062.00
2019-04-23T16:36:12.628Z,94069.00
2019-04-23T16:41:52.177Z,94072.00
2019-04-23T16:52:42.221Z,94076.00
2019-04-23T16:58:29.466Z,94076.00
2019-04-23T17:04:15.780Z,94071.00
2019-04-23T17:20:40.834Z,94074.00
2019-04-23T17:26:10.982Z,94086.00
2019-04-23T17:37:21.492Z,94088.00
2019-04-23T17:42:45.133Z,94093.00
2019-04-23T17:48:17.267Z,94088.00
2019-04-23T17:53:51.211Z,94098.00
2019-04-23T17:59:31.200Z,94097.00
2019-04-23T18:05:02.813Z,94104.00
2019-04-23T18:10:27.395Z,94105.00
2019-04-23T18:16:06.796Z,94107.00
2019-04-23T18:21:37.726Z,94113.00
2019-04-23T18:27:04.948Z,94113.00
2019-04-23T18:32:58.346Z,94112.00
2019-04-23T18:38:19.819Z,94112.00
2019-04-23T18:43:44.897Z,94117.00
2019-04-23T18:49:35.139Z,94124.00
2019-04-23T18:54:53.924Z,94134.00
2019-04-23T19:17:48.523Z,94149.00
2019-04-23T19:23:09.547Z,94148.00
2019-04-23T19:28:47.663Z,94161.00
2019-04-23T19:39:43.202Z,94159.00
2019-04-23T19:45:16.697Z,94162.00
2019-04-23T19:51:44.552Z,94153.00
2019-04-23T19:56:16.891Z,94153.00
2019-04-23T20:01:58.912Z,94151.00
2019-04-23T20:07:25.524Z,94140.00
2019-04-23T20:12:54.662Z,94147.00
2019-04-23T20:18:35.678Z,94148.00
2019-04-23T20:24:04.244Z,94146.00
2019-04-23T20:30:02.469Z,94151.00
2019-04-23T20:35:28.843Z,94147.00
2019-04-23T20:41:03.416Z,94148.00
2019-04-23T20:46:16.537Z,94158.00
2019-04-23T20:51:58.203Z,94144.00
2019-04-23T21:08:53.840Z,94150.00
2019-04-23T21:19:56.933Z,94163.00
2019-04-23T21:25:11.721Z,94163.00
2019-04-23T21:36:25.666Z,94176.00
2019-04-23T21:47:28.198Z,94184.00
2019-04-23T21:52:59.500Z,94189.00
2019-04-23T21:58:36.679Z,94196.00
2019-04-23T22:09:42.363Z,94197.00
2019-04-23T22:15:22.264Z,94204.00
2019-04-23T22:20:44.450Z,94195.00
2019-04-23T22:26:13.456Z,94198.00
2019-04-23T22:31:43.025Z,94205.00
2019-04-23T22:43:05.412Z,94212.00
2019-04-23T22:48:14.997Z,94214.00
2019-04-23T22:53:50.801Z,94211.00
2019-04-23T22:59:18.305Z,94214.00
2019-04-23T23:05:04.251Z,94215.00
2019-04-23T23:10:20.925Z,94223.00
2019-04-23T23:15:55.925Z,94214.00
2019-04-23T23:21:38.143Z,94215.00
2019-04-23T23:27:09.066Z,94215.00
2019-04-23T23:32:31.776Z,94215.00
2019-04-23T23:38:00.664Z,94213.00
2019-04-23T23:54:27.572Z,94213.00
